Time;durP1;ratioP1;P1;durP2;ratioP2;P2;SDS_P1;SDS_P2;PMS_P1;PMS_P2;Temp;Humidity;BMP_temperature;BMP_pressure;BME280_temperature;BME280_humidity;BME280_pressure;Samples;Min_cycle;Max_cycle;Signal;HPM_P1;HPM_P2
2023/05/11 05:21:34;;;;;;;;;;;;;;;14.98;62.20;96758.06;4226325;27;1435646;-72
2023/05/11 05:23:37;;;;;;;;;;;;;;;15.27;61.69;96762.63;4257078;27;5665;-72
2023/05/11 05:25:40;;;;;;;;;;;;;;;15.51;61.38;96757.41;4259491;27;5578;-72
2023/05/11 05:27:43;;;;;;;;;;;;;;;15.68;61.01;96758.44;4254134;27;5683;-71
2023/05/11 05:29:45;;;;;;;;;;;;;;;15.82;60.82;96757.22;4256892;27;5604;-72
2023/05/11 05:31:48;;;;;;;;;;;;;;;15.96;60.53;96757.84;4263229;27;5594;-71
2023/05/11 05:33:51;;;;;;;;;;;;;;;16.07;60.22;96750.91;4264360;27;5831;-72
2023/05/11 05:35:54;;;;;;;;;;;;;;;16.17;60.19;96754.63;4262719;27;5764;-73
2023/05/11 05:37:58;;;;;;;;;;;;;;;16.27;59.93;96754.91;4260637;27;6343;-73
2023/05/11 05:40:02;;;;;;;;;;;;;;;16.35;59.68;96756.44;4255813;27;5608;-74
2023/05/11 05:42:05;;;;;;;;;;;;;;;16.41;59.60;96760.81;4260750;27;5578;-77
2023/05/11 05:44:08;;;;;;;;;;;;;;;16.48;59.55;96760.72;4261551;27;5578;-69
2023/05/11 05:46:11;;;;;;;;;;;;;;;16.53;59.39;96761.63;4252666;27;5784;-70
2023/05/11 05:48:15;;;;;;;;;;;;;;;16.59;59.45;96754.59;4248666;27;6298;-69
2023/05/11 05:50:18;;;;;;;;;;;;;;;16.62;59.33;96759.44;4256790;27;5593;-69
2023/05/11 05:52:21;;;;;;;;;;;;;;;16.67;59.27;96756.09;4248923;27;5043;-69
2023/05/11 05:54:25;;;;;;;;;;;;;;;16.70;59.04;96761.81;4256708;27;5812;-69
2023/05/11 05:56:30;;;;;;;;;;;;;;;16.71;59.05;96763.44;4265245;27;5731;-70
2023/05/11 05:58:33;;;;;;;;;;;;;;;16.74;58.98;96765.63;4265741;27;5589;-69
2023/05/11 06:00:36;;;;;;;;;;;;;;;16.72;59.04;96765.06;4256760;27;5581;-68
2023/05/11 06:02:40;;;;;;;;;;;;;;;16.70;59.00;96758.31;4265564;27;5622;-69
2023/05/11 06:04:43;;;;;;;;;;;;;;;16.68;58.93;96758.56;4263819;27;5668;-69
2023/05/11 06:06:46;;;;;;;;;;;;;;;16.68;58.90;96763.09;4250543;27;5836;-69
2023/05/11 06:08:49;;;;;;;;;;;;;;;16.65;58.97;96756.34;4262614;27;5882;-69
2023/05/11 06:10:53;;;;;;;;;;;;;;;16.69;58.89;96759.38;4251164;27;5598;-69
2023/05/11 06:12:56;;;;;;;;;;;;;;;16.69;58.64;96767.38;4253059;27;5609;-69
2023/05/11 06:14:59;;;;;;;;;;;;;;;16.72;58.65;96761.56;4261201;27;5653;-70
2023/05/11 06:17:02;;;;;;;;;;;;;;;16.72;58.77;96751.69;4256557;27;5594;-70
2023/05/11 06:19:05;;;;;;;;;;;;;;;16.76;58.61;96750.22;4265276;27;5795;-70
2023/05/11 06:21:09;;;;;;;;;;;;;;;16.75;58.51;96756.56;4252716;27;5582;-69
2023/05/11 06:23:11;;;;;;;;;;;;;;;16.78;58.42;96753.47;4245064;27;5586;-70
2023/05/11 06:25:17;;;;;;;;;;;;;;;16.81;58.47;96757.50;4245016;27;5578;-70
2023/05/11 06:27:21;;;;;;;;;;;;;;;16.80;58.52;96746.03;4237801;27;5652;-70
2023/05/11 06:29:24;;;;;;;;;;;;;;;16.77;58.40;96751.84;4252841;27;5587;-68
2023/05/11 06:31:28;;;;;;;;;;;;;;;16.77;58.27;96751.03;4244898;27;5668;-69
2023/05/11 06:33:31;;;;;;;;;;;;;;;16.75;58.40;96745.06;4245011;27;5593;-69
2023/05/11 06:35:36;;;;;;;;;;;;;;;16.76;58.42;96749.38;4244233;27;5717;-69
2023/05/11 06:37:40;;;;;;;;;;;;;;;16.79;58.39;96754.25;4236531;28;6325;-69
2023/05/11 06:39:43;;;;;;;;;;;;;;;16.77;58.31;96749.16;4237993;27;5593;-69
2023/05/11 06:41:45;;;;;;;;;;;;;;;16.76;58.53;96746.69;4253025;27;5566;-69
2023/05/11 06:43:49;;;;;;;;;;;;;;;16.79;58.46;96743.59;4250771;27;5813;-69
2023/05/11 06:45:52;;;;;;;;;;;;;;;16.82;58.35;96748.44;4247973;27;5803;-70
2023/05/11 06:47:55;;;;;;;;;;;;;;;16.85;58.19;96743.44;4240884;27;5581;-70
2023/05/11 06:49:59;;;;;;;;;;;;;;;16.86;58.23;96741.59;4240260;27;5571;-70
2023/05/11 06:52:01;;;;;;;;;;;;;;;16.86;58.25;96739.72;4244535;27;5672;-70
2023/05/11 06:54:05;;;;;;;;;;;;;;;16.86;58.29;96738.91;4244397;27;5578;-70
2023/05/11 06:56:08;;;;;;;;;;;;;;;16.86;58.13;96738.91;4252945;27;5694;-70
2023/05/11 06:58:10;;;;;;;;;;;;;;;16.87;58.16;96738.72;4238844;27;5597;-70
2023/05/11 07:00:17;;;;;;;;;;;;;;;16.90;58.23;96739.28;4241863;27;5677;-71
2023/05/11 07:02:20;;;;;;;;;;;;;;;16.87;58.07;96743.22;4246018;27;5601;-70
2023/05/11 07:04:23;;;;;;;;;;;;;;;16.88;58.06;96740.34;4243458;27;5603;-70
2023/05/11 07:06:27;;;;;;;;;;;;;;;16.91;57.94;96744.38;4244359;27;5610;-69
2023/05/11 07:08:30;;;;;;;;;;;;;;;16.92;57.98;96743.34;4244368;27;5585;-68
2023/05/11 07:10:32;;;;;;;;;;;;;;;16.95;57.97;96747.41;4252393;27;5579;-69
2023/05/11 07:12:36;;;;;;;;;;;;;;;16.98;57.84;96749.59;4236594;27;5596;-68
2023/05/11 07:14:39;;;;;;;;;;;;;;;17.00;57.71;96750.19;4251612;27;5586;-69
2023/05/11 07:16:43;;;;;;;;;;;;;;;16.99;57.75;96751.22;4244191;27;5646;-69
2023/05/11 07:18:46;;;;;;;;;;;;;;;17.00;57.56;96747.53;4244397;27;5574;-69
2023/05/11 07:20:49;;;;;;;;;;;;;;;17.02;57.66;96740.88;4235499;27;5858;-69
2023/05/11 07:22:52;;;;;;;;;;;;;;;17.01;57.72;96747.28;4224139;28;6921;-69
2023/05/11 07:24:55;;;;;;;;;;;;;;;17.04;57.54;96751.34;4227209;28;5096;-69
2023/05/11 07:26:58;;;;;;;;;;;;;;;17.03;57.48;96753.19;4218646;28;5616;-69
2023/05/11 07:29:01;;;;;;;;;;;;;;;17.05;57.29;96747.59;4231628;28;5609;-69
2023/05/11 07:31:04;;;;;;;;;;;;;;;17.06;57.41;96751.91;4227165;28;5685;-70
2023/05/11 07:33:09;;;;;;;;;;;;;;;17.05;57.47;96750.28;4229240;28;5726;-69
2023/05/11 07:35:13;;;;;;;;;;;;;;;17.03;57.47;96744.38;4233368;28;5601;-69
2023/05/11 07:37:17;;;;;;;;;;;;;;;17.03;57.47;96745.19;4229029;28;5678;-69
2023/05/11 07:39:20;;;;;;;;;;;;;;;17.03;57.28;96739.84;4208504;28;6436;-69
2023/05/11 07:41:25;;;;;;;;;;;;;;;17.01;57.24;96741.13;4234118;28;5609;-69
2023/05/11 07:43:28;;;;;;;;;;;;;;;17.02;57.13;96742.75;4218774;28;5624;-70
2023/05/11 07:45:32;;;;;;;;;;;;;;;17.03;57.27;96744.38;4218624;28;5686;-69
2023/05/11 07:47:35;;;;;;;;;;;;;;;17.03;57.16;96739.03;4219117;28;5597;-69
2023/05/11 07:49:40;;;;;;;;;;;;;;;17.02;57.14;96743.56;4226756;28;5698;-70
2023/05/11 07:51:46;;;;;;;;;;;;;;;17.01;57.10;96736.59;4233336;28;5713;-69
2023/05/11 07:53:49;;;;;;;;;;;;;;;17.03;57.02;96739.84;4226708;28;5815;-70
2023/05/11 07:55:52;;;;;;;;;;;;;;;17.02;56.97;96742.75;4225247;28;5636;-70
2023/05/11 07:57:55;;;;;;;;;;;;;;;17.01;57.09;96744.59;4218312;28;5619;-69
2023/05/11 07:59:57;;;;;;;;;;;;;;;17.03;57.12;96734.50;4226766;28;5604;-70
2023/05/11 08:02:00;;;;;;;;;;;;;;;17.08;57.05;96739.94;4226420;28;5698;-70
2023/05/11 08:04:04;;;;;;;;;;;;;;;17.09;56.93;96738.06;4223038;28;5606;-70
2023/05/11 08:06:09;;;;;;;;;;;;;;;17.12;56.79;96741.09;4226642;28;5605;-70
2023/05/11 08:08:12;;;;;;;;;;;;;;;17.16;56.40;96736.91;4226611;28;5692;-70
2023/05/11 08:10:15;;;;;;;;;;;;;;;17.20;56.56;96745.25;4219951;28;5729;-70
2023/05/11 08:12:18;;;;;;;;;;;;;;;17.23;56.43;96736.78;4226241;28;5616;-70
2023/05/11 08:14:21;;;;;;;;;;;;;;;17.26;56.27;96732.81;4226216;28;5620;-70
2023/05/11 08:16:24;;;;;;;;;;;;;;;17.24;56.09;96738.41;4226418;28;5616;-70
2023/05/11 08:18:27;;;;;;;;;;;;;;;17.21;56.14;96730.84;4218212;28;5766;-70
2023/05/11 08:20:30;;;;;;;;;;;;;;;17.21;55.99;96738.03;4226247;27;5833;-70
2023/05/11 08:22:34;;;;;;;;;;;;;;;17.23;55.88;96728.78;4226173;28;5711;-70
2023/05/11 08:24:37;;;;;;;;;;;;;;;17.28;55.69;96730.72;4225188;28;5616;-70
2023/05/11 08:26:41;;;;;;;;;;;;;;;17.31;55.67;96714.19;4219217;28;5612;-70
2023/05/11 08:28:44;;;;;;;;;;;;;;;17.33;55.65;96723.63;4225915;28;5679;-70
2023/05/11 08:30:47;;;;;;;;;;;;;;;17.34;55.56;96725.25;4226183;28;5608;-70
2023/05/11 08:32:50;;;;;;;;;;;;;;;17.38;55.57;96721.03;4222977;28;5624;-69
2023/05/11 08:35:00;;;;;;;;;;;;;;;17.43;55.49;96726.47;4209344;28;5119;-70
2023/05/11 08:37:04;;;;;;;;;;;;;;;17.47;55.54;96718.81;4226259;28;5641;-70
2023/05/11 08:39:08;;;;;;;;;;;;;;;17.50;55.61;96717.53;4226092;28;5648;-69
2023/05/11 08:41:12;;;;;;;;;;;;;;;17.51;55.54;96719.13;4225618;28;5604;-70
2023/05/11 08:43:16;;;;;;;;;;;;;;;17.53;55.42;96722.38;4225963;28;6297;-69
2023/05/11 08:45:21;;;;;;;;;;;;;;;17.52;55.45;96721.56;4232919;28;5689;-70
2023/05/11 08:47:24;;;;;;;;;;;;;;;17.55;55.53;96720.28;4226927;28;5619;-69
2023/05/11 08:49:28;;;;;;;;;;;;;;;17.58;55.46;96715.28;4225828;28;5619;-69
2023/05/11 08:51:31;;;;;;;;;;;;;;;17.61;55.34;96714.78;4217948;28;5716;-69
2023/05/11 08:53:34;;;;;;;;;;;;;;;17.61;55.32;96714.00;4225803;28;5723;-70
2023/05/11 08:55:40;;;;;;;;;;;;;;;17.63;55.37;96715.38;4233541;28;5616;-70
2023/05/11 08:57:45;;;;;;;;;;;;;;;17.64;55.33;96710.81;4225600;28;5609;-69
2023/05/11 08:59:50;;;;;;;;;;;;;;;17.63;55.21;96711.88;4226130;28;5617;-69
2023/05/11 09:01:55;;;;;;;;;;;;;;;17.61;55.16;96714.78;4225857;28;5608;-70
2023/05/11 09:03:58;;;;;;;;;;;;;;;17.57;55.12;96711.00;4225823;28;5623;-69
2023/05/11 09:06:05;;;;;;;;;;;;;;;17.56;55.17;96706.69;4229667;28;5103;-70
2023/05/11 09:08:12;;;;;;;;;;;;;;;17.56;55.21;96711.22;4225433;28;5601;-70
2023/05/11 09:10:16;;;;;;;;;;;;;;;17.58;55.22;96711.78;4225658;28;5590;-70
2023/05/11 09:12:24;;;;;;;;;;;;;;;17.60;55.08;96699.81;4227173;28;5715;-70
2023/05/11 09:14:28;;;;;;;;;;;;;;;17.60;55.04;96699.81;4234033;28;5800;-70
2023/05/11 09:16:31;;;;;;;;;;;;;;;17.57;54.94;96702.16;4225639;28;5617;-70
2023/05/11 09:18:46;;;;;;;;;;;;;;;17.57;54.85;96694.16;4200760;28;5730;-70
2023/05/11 09:20:52;;;;;;;;;;;;;;;17.56;54.70;96697.88;4236311;27;5156;-69
2023/05/11 09:22:55;;;;;;;;;;;;;;;17.51;54.53;96697.75;4242552;27;7663;-70
2023/05/11 09:24:59;;;;;;;;;;;;;;;17.46;54.70;96696.63;4242547;27;5578;-70
2023/05/11 09:27:08;;;;;;;;;;;;;;;17.49;54.46;96689.97;4246449;27;5598;-70
2023/05/11 09:29:13;;;;;;;;;;;;;;;17.52;54.40;96688.69;4248532;27;5594;-70
2023/05/11 09:31:41;;;;;;;;;;;;;;;17.48;54.54;96685.69;4251162;27;5581;-71
2023/05/11 09:33:44;;;;;;;;;;;;;;;17.46;54.62;96685.94;4242484;27;5578;-70
2023/05/11 09:35:47;;;;;;;;;;;;;;;17.43;54.56;96680.22;4234203;28;5601;-70
2023/05/11 09:38:01;;;;;;;;;;;;;;;17.42;54.47;96689.31;4242491;27;5816;-70
2023/05/11 09:40:04;;;;;;;;;;;;;;;17.44;54.42;96687.19;4242465;27;6287;-69
2023/05/11 09:42:30;;;;;;;;;;;;;;;17.45;54.44;96688.84;4242213;27;5585;-70
2023/05/11 09:44:34;;;;;;;;;;;;;;;17.48;54.31;96676.88;4233944;28;5672;-68
2023/05/11 09:46:38;;;;;;;;;;;;;;;17.42;54.29;96674.09;4234361;28;5600;-69
2023/05/11 09:48:41;;;;;;;;;;;;;;;17.46;54.26;96675.25;4244136;27;5590;-69
2023/05/11 09:50:45;;;;;;;;;;;;;;;17.54;54.16;96667.88;4240216;27;5593;-69
2023/05/11 09:52:51;;;;;;;;;;;;;;;17.59;53.95;96667.97;4242667;27;6060;-69
2023/05/11 09:54:54;;;;;;;;;;;;;;;17.64;53.77;96665.38;4234161;28;5592;-69
2023/05/11 09:56:59;;;;;;;;;;;;;;;17.71;53.65;96666.09;4243590;27;5601;-70
2023/05/11 09:59:02;;;;;;;;;;;;;;;17.72;53.51;96675.72;4241613;27;5594;-70
2023/05/11 10:01:06;;;;;;;;;;;;;;;17.76;53.31;96671.50;4245608;27;5690;-70
2023/05/11 10:03:09;;;;;;;;;;;;;;;17.80;53.26;96664.63;4239923;27;5659;-70
2023/05/11 10:05:14;;;;;;;;;;;;;;;17.88;53.16;96666.09;4245326;27;7037;-70
2023/05/11 10:07:26;;;;;;;;;;;;;;;17.93;52.97;96668.84;4252279;27;5721;-70
2023/05/11 10:09:29;;;;;;;;;;;;;;;17.95;52.92;96664.06;4245369;27;5593;-69
2023/05/11 10:11:32;;;;;;;;;;;;;;;17.97;52.86;96661.97;4245750;27;5834;-69
2023/05/11 10:13:36;;;;;;;;;;;;;;;17.95;52.88;96659.53;4245148;27;7649;-70
2023/05/11 10:15:39;;;;;;;;;;;;;;;17.93;52.69;96664.31;4245078;27;5699;-70
2023/05/11 10:17:45;;;;;;;;;;;;;;;17.91;52.50;96666.44;4245334;27;5597;-69
2023/05/11 10:19:49;;;;;;;;;;;;;;;17.85;52.59;96662.03;4226506;28;5077;-69
2023/05/11 10:21:52;;;;;;;;;;;;;;;17.78;52.38;96666.75;4245422;27;5618;-69
2023/05/11 10:23:57;;;;;;;;;;;;;;;17.68;52.48;96670.03;4241468;27;5612;-69
2023/05/11 10:26:01;;;;;;;;;;;;;;;17.66;52.28;96671.28;4244949;27;5816;-70
2023/05/11 10:28:05;;;;;;;;;;;;;;;17.64;52.37;96665.38;4245299;27;5601;-70
2023/05/11 10:30:12;;;;;;;;;;;;;;;17.58;52.26;96667.16;4245001;27;5589;-70
2023/05/11 10:32:16;;;;;;;;;;;;;;;17.53;52.08;96674.28;4236971;28;5613;-70
2023/05/11 10:34:22;;;;;;;;;;;;;;;17.50;52.01;96666.75;4244953;27;5597;-70
2023/05/11 10:36:27;;;;;;;;;;;;;;;17.48;52.07;96669.66;4252924;27;5577;-70
2023/05/11 10:38:30;;;;;;;;;;;;;;;17.49;52.12;96667.78;4244908;27;5740;-70
2023/05/11 10:40:36;;;;;;;;;;;;;;;17.45;51.93;96668.28;4253430;27;5710;-70
2023/05/11 10:43:01;;;;;;;;;;;;;;;17.45;52.04;96668.28;4244567;27;5609;-69
2023/05/11 10:45:16;;;;;;;;;;;;;;;17.46;52.21;96664.56;4248874;27;5609;-69
2023/05/11 10:47:38;;;;;;;;;;;;;;;17.47;52.17;96662.69;4236773;28;5703;-70
2023/05/11 10:50:12;;;;;;;;;;;;;;;17.46;52.37;96661.88;4236677;28;5605;-71
2023/05/11 10:52:44;;;;;;;;;;;;;;;17.48;52.39;96666.97;4244715;27;5222;-71
2023/05/11 10:55:01;;;;;;;;;;;;;;;17.47;52.45;96670.72;4235721;28;5613;-70
2023/05/11 10:57:12;;;;;;;;;;;;;;;17.51;52.43;96665.69;4244356;27;5657;-70
2023/05/11 10:59:51;;;;;;;;;;;;;;;17.52;52.71;96657.41;4251090;27;5582;-69
2023/05/11 11:01:57;;;;;;;;;;;;;;;17.55;52.65;96658.78;4244492;27;5604;-69
2023/05/11 11:04:04;;;;;;;;;;;;;;;17.57;52.46;96654.03;4244419;27;5688;-69
2023/05/11 11:06:22;;;;;;;;;;;;;;;17.55;52.54;96650.78;4250008;27;5586;-70
2023/05/11 11:08:25;;;;;;;;;;;;;;;17.55;52.54;96648.09;4244360;27;5594;-69
2023/05/11 11:10:33;;;;;;;;;;;;;;;17.58;52.53;96651.13;4244226;27;5696;-69
2023/05/11 11:12:36;;;;;;;;;;;;;;;17.63;52.50;96650.41;4244136;27;5567;-69
2023/05/11 11:14:54;;;;;;;;;;;;;;;17.62;52.40;96641.56;4244287;27;5803;-70
2023/05/11 11:17:22;;;;;;;;;;;;;;;17.61;52.35;96641.81;4244165;27;5594;-69
2023/05/11 11:19:35;;;;;;;;;;;;;;;17.62;52.23;96638.91;4236065;27;5593;-69
2023/05/11 11:21:41;;;;;;;;;;;;;;;17.64;52.33;96636.78;4244416;27;6369;-69
2023/05/11 11:23:49;;;;;;;;;;;;;;;17.68;52.34;96631.78;4244053;27;5574;-69
2023/05/11 11:25:53;;;;;;;;;;;;;;;17.68;52.36;96632.59;4247586;27;5657;-69
2023/05/11 11:27:58;;;;;;;;;;;;;;;17.64;52.38;96628.75;4243844;27;5578;-69
2023/05/11 11:30:18;;;;;;;;;;;;;;;17.66;52.28;96625.84;4244141;27;5587;-69
2023/05/11 11:32:28;;;;;;;;;;;;;;;17.63;52.31;96621.00;4243971;27;5574;-69
2023/05/11 11:34:38;;;;;;;;;;;;;;;17.61;52.43;96623.09;4244159;27;5691;-69
2023/05/11 11:37:12;;;;;;;;;;;;;;;17.62;52.34;96627.41;4243979;27;5579;-69
2023/05/11 11:39:18;;;;;;;;;;;;;;;17.66;52.36;96620.50;4243894;27;5593;-69
2023/05/11 11:41:29;;;;;;;;;;;;;;;17.64;52.42;96617.25;4242502;27;5596;-69
2023/05/11 11:43:44;;;;;;;;;;;;;;;17.64;52.40;96615.41;4243699;27;5589;-69
2023/05/11 11:45:51;;;;;;;;;;;;;;;17.65;52.44;96618.88;4244049;27;5578;-69
2023/05/11 11:48:12;;;;;;;;;;;;;;;17.63;52.41;96621.81;4243941;27;5601;-70
2023/05/11 11:50:15;;;;;;;;;;;;;;;17.63;52.32;96616.47;4241784;27;5620;-70
2023/05/11 11:52:34;;;;;;;;;;;;;;;17.67;52.37;96616.81;4243720;27;5662;-70
2023/05/11 11:54:38;;;;;;;;;;;;;;;17.69;52.11;96622.75;4243610;27;5597;-69
2023/05/11 11:56:45;;;;;;;;;;;;;;;17.69;52.26;96607.50;4224659;28;5497;-70
2023/05/11 11:58:59;;;;;;;;;;;;;;;17.71;52.32;96615.28;4243687;27;5689;-70
2023/05/11 12:01:04;;;;;;;;;;;;;;;17.74;52.22;96612.94;4240010;27;5594;-70
2023/05/11 12:03:10;;;;;;;;;;;;;;;17.74;52.22;96618.28;4243641;27;5898;-70
2023/05/11 12:05:17;;;;;;;;;;;;;;;17.75;52.10;96608.38;4237230;27;7664;-70
2023/05/11 12:07:21;;;;;;;;;;;;;;;17.71;52.32;96612.63;4242057;27;5582;-70
2023/05/11 12:09:26;;;;;;;;;;;;;;;17.68;52.10;96607.72;4243219;27;5705;-70
2023/05/11 12:11:29;;;;;;;;;;;;;;;17.65;52.06;96606.31;4243575;27;6274;-70
2023/05/11 12:13:33;;;;;;;;;;;;;;;17.65;51.93;96603.66;4243659;27;5594;-69
2023/05/11 12:15:36;;;;;;;;;;;;;;;17.68;52.08;96602.38;4243382;27;5609;-71
2023/05/11 12:17:39;;;;;;;;;;;;;;;17.69;51.88;96599.50;4250813;27;5638;-69
2023/05/11 12:19:45;;;;;;;;;;;;;;;17.68;51.86;96597.03;4242342;27;5578;-68
2023/05/11 12:21:48;;;;;;;;;;;;;;;17.67;51.91;96590.88;4246134;27;6579;-70
2023/05/11 12:23:53;;;;;;;;;;;;;;;17.63;52.00;96596.94;4243161;27;6549;-70
2023/05/11 12:26:04;;;;;;;;;;;;;;;17.59;51.81;96585.13;4239333;27;5589;-70
2023/05/11 12:28:08;;;;;;;;;;;;;;;17.59;51.85;96585.13;4248630;27;5591;-71
2023/05/11 12:30:20;;;;;;;;;;;;;;;17.61;51.84;96591.03;4243188;27;5681;-70
2023/05/11 12:32:27;;;;;;;;;;;;;;;17.60;51.72;96590.22;4243119;27;5622;-70
2023/05/11 12:34:30;;;;;;;;;;;;;;;17.61;51.64;96583.81;4243080;27;5633;-70
2023/05/11 12:36:39;;;;;;;;;;;;;;;17.64;51.48;96574.50;4251781;27;5593;-70
2023/05/11 12:38:46;;;;;;;;;;;;;;;17.67;51.54;96574.03;4242957;27;5621;-70
2023/05/11 12:40:50;;;;;;;;;;;;;;;17.70;51.75;96578.91;4242673;27;5793;-69
2023/05/11 12:42:56;;;;;;;;;;;;;;;17.70;51.81;96570.91;4248028;27;5624;-70
2023/05/11 12:44:59;;;;;;;;;;;;;;;17.72;51.75;96566.09;4242753;27;5621;-68
2023/05/11 12:47:02;;;;;;;;;;;;;;;17.77;51.84;96552.81;4247338;27;6263;-70
2023/05/11 12:49:05;;;;;;;;;;;;;;;17.83;51.61;96559.88;4242519;27;5600;-69
2023/05/11 12:51:08;;;;;;;;;;;;;;;17.87;51.92;96554.81;4245937;27;5593;-70
2023/05/11 12:53:16;;;;;;;;;;;;;;;17.91;51.91;96548.75;4242510;27;5601;-69
2023/05/11 12:55:27;;;;;;;;;;;;;;;17.96;51.94;96546.16;4242557;27;5696;-69
2023/05/11 12:57:32;;;;;;;;;;;;;;;18.04;51.85;96542.25;4242298;27;6276;-69
2023/05/11 12:59:39;;;;;;;;;;;;;;;18.07;51.88;96539.06;4242470;27;5696;-69
2023/05/11 13:01:42;;;;;;;;;;;;;;;18.07;51.87;96539.06;4242824;27;5575;-69
2023/05/11 13:03:46;;;;;;;;;;;;;;;18.11;51.92;96534.03;4234208;28;5605;-69
2023/05/11 13:05:49;;;;;;;;;;;;;;;18.15;52.09;96537.84;4242546;27;5799;-69
2023/05/11 13:07:58;;;;;;;;;;;;;;;18.20;52.10;96529.88;4242641;27;5693;-70
2023/05/11 13:10:01;;;;;;;;;;;;;;;18.26;52.13;96523.56;4242097;27;5601;-70
2023/05/11 13:12:11;;;;;;;;;;;;;;;18.25;52.11;96522.75;4220671;28;5529;-69
2023/05/11 13:14:16;;;;;;;;;;;;;;;18.26;52.16;96513.66;4242571;27;5586;-70
2023/05/11 13:16:27;;;;;;;;;;;;;;;18.26;52.38;96521.69;4244199;27;5611;-70
2023/05/11 13:18:30;;;;;;;;;;;;;;;18.26;52.27;96518.22;4234422;28;5633;-69
2023/05/11 13:20:34;;;;;;;;;;;;;;;18.23;52.30;96518.69;4234368;27;5613;-69
2023/05/11 13:22:37;;;;;;;;;;;;;;;18.21;52.29;96518.13;4233089;28;5737;-70
2023/05/11 13:24:40;;;;;;;;;;;;;;;18.22;52.36;96506.34;4225472;28;5585;-70
2023/05/11 13:26:43;;;;;;;;;;;;;;;18.23;52.27;96502.63;4218833;28;5707;-70
2023/05/11 13:28:46;;;;;;;;;;;;;;;18.25;52.32;96503.22;4231639;28;5661;-70
2023/05/11 13:31:03;;;;;;;;;;;;;;;18.28;52.18;96502.72;4225790;28;5742;-70
2023/05/11 13:33:08;;;;;;;;;;;;;;;18.31;52.21;96504.88;4225721;28;5103;-69
2023/05/11 13:35:11;;;;;;;;;;;;;;;18.33;52.12;96492.06;4231560;28;5608;-70
2023/05/11 13:37:14;;;;;;;;;;;;;;;18.36;52.00;96490.75;4228787;28;5747;-70
2023/05/11 13:39:17;;;;;;;;;;;;;;;18.40;52.29;96492.69;4228921;28;5675;-69
2023/05/11 13:41:19;;;;;;;;;;;;;;;18.46;52.37;96489.03;4228482;28;5686;-69
2023/05/11 13:43:22;;;;;;;;;;;;;;;18.52;52.23;96490.69;4220547;28;5656;-70
2023/05/11 13:45:25;;;;;;;;;;;;;;;18.56;52.07;96494.47;4228656;28;5612;-70
2023/05/11 13:47:28;;;;;;;;;;;;;;;18.58;52.14;96491.56;4228737;28;5715;-70
2023/05/11 13:49:32;;;;;;;;;;;;;;;18.54;52.01;96485.88;4228707;28;6258;-69
2023/05/11 13:51:35;;;;;;;;;;;;;;;18.51;52.21;96497.09;4228654;28;5683;-70
2023/05/11 13:53:38;;;;;;;;;;;;;;;18.51;52.22;96498.97;4228599;28;5615;-70
2023/05/11 13:55:42;;;;;;;;;;;;;;;18.46;52.02;96491.69;4235458;28;5597;-70
2023/05/11 13:57:45;;;;;;;;;;;;;;;18.38;52.09;96484.09;4228429;28;5605;-70
2023/05/11 13:59:48;;;;;;;;;;;;;;;18.32;52.38;96490.44;4219001;28;5604;-70
2023/05/11 14:01:51;;;;;;;;;;;;;;;18.30;52.28;96484.53;4223087;28;6287;-70
2023/05/11 14:03:56;;;;;;;;;;;;;;;18.27;52.38;96482.34;4228366;28;7651;-69
2023/05/11 14:06:00;;;;;;;;;;;;;;;18.27;52.09;96490.38;4228358;28;5723;-70
2023/05/11 14:08:04;;;;;;;;;;;;;;;18.26;52.25;96486.09;4223896;28;5789;-70
2023/05/11 14:10:09;;;;;;;;;;;;;;;18.24;52.05;96489.03;4228293;28;5091;-70
2023/05/11 14:12:12;;;;;;;;;;;;;;;18.21;51.97;96486.00;4228285;28;5607;-70
2023/05/11 14:14:15;;;;;;;;;;;;;;;18.20;52.12;96487.88;4228390;28;5624;-70
2023/05/11 14:16:18;;;;;;;;;;;;;;;18.16;52.03;96480.63;4226829;28;5688;-73
2023/05/11 14:18:23;;;;;;;;;;;;;;;18.08;52.09;96473.81;4229610;28;5615;-73
2023/05/11 14:20:26;;;;;;;;;;;;;;;18.04;52.27;96480.72;4226985;28;5593;-70
2023/05/11 14:22:31;;;;;;;;;;;;;;;18.01;52.20;96478.56;4245019;27;5601;-69
2023/05/11 14:24:34;;;;;;;;;;;;;;;17.97;52.14;96472.88;4245074;27;5586;-70
2023/05/11 14:26:37;;;;;;;;;;;;;;;17.93;52.22;96468.28;4244365;27;5633;-69
2023/05/11 14:28:40;;;;;;;;;;;;;;;17.95;52.34;96475.00;4245636;27;5589;-70
2023/05/11 14:30:43;;;;;;;;;;;;;;;17.95;52.16;96464.31;4250598;27;5594;-69
2023/05/11 14:32:46;;;;;;;;;;;;;;;17.93;52.19;96461.06;4253378;27;5591;-68
2023/05/11 14:34:49;;;;;;;;;;;;;;;17.94;52.28;96461.88;4250060;27;5705;-68
2023/05/11 14:36:52;;;;;;;;;;;;;;;17.96;52.22;96462.44;4251340;27;5761;-69
2023/05/11 14:38:56;;;;;;;;;;;;;;;17.98;52.11;96461.13;4252209;27;5808;-69
2023/05/11 14:40:59;;;;;;;;;;;;;;;17.98;52.18;96463.78;4248231;27;5668;-74
2023/05/11 14:43:03;;;;;;;;;;;;;;;18.03;52.05;96463.06;4246565;27;5660;-70
2023/05/11 14:45:07;;;;;;;;;;;;;;;18.06;52.04;96459.09;4240059;27;6353;-70
2023/05/11 14:47:10;;;;;;;;;;;;;;;18.09;51.84;96456.72;4245059;27;5595;-69
2023/05/11 14:49:13;;;;;;;;;;;;;;;18.08;51.91;96459.63;4242967;27;5669;-70
2023/05/11 14:51:16;;;;;;;;;;;;;;;18.07;51.88;96458.03;4242873;27;5860;-70
2023/05/11 14:53:19;;;;;;;;;;;;;;;18.04;51.87;96456.66;4243424;27;5732;-70
2023/05/11 14:55:24;;;;;;;;;;;;;;;18.02;51.83;96462.25;4240814;27;5755;-70
2023/05/11 14:57:27;;;;;;;;;;;;;;;18.03;51.87;96466.56;4241338;27;5832;-70
2023/05/11 14:59:30;;;;;;;;;;;;;;;18.03;51.65;96458.53;4242327;27;5761;-70
2023/05/11 15:01:33;;;;;;;;;;;;;;;18.01;51.92;96463.31;4241883;27;5684;-71
2023/05/11 15:03:36;;;;;;;;;;;;;;;18.01;51.70;96462.50;4242648;27;5670;-70
2023/05/11 15:05:39;;;;;;;;;;;;;;;18.01;51.67;96468.66;4244644;27;5574;-70
2023/05/11 15:07:42;;;;;;;;;;;;;;;18.00;51.65;96456.31;4239601;27;5727;-70
2023/05/11 15:09:45;;;;;;;;;;;;;;;18.00;51.71;96456.31;4244486;27;5581;-70
2023/05/11 15:11:49;;;;;;;;;;;;;;;18.00;51.55;96442.94;4239759;27;5107;-70
2023/05/11 15:13:52;;;;;;;;;;;;;;;18.03;51.50;96450.50;4245805;27;5725;-69
2023/05/11 15:15:56;;;;;;;;;;;;;;;18.00;51.48;96448.31;4238774;27;5577;-70
2023/05/11 15:17:59;;;;;;;;;;;;;;;18.02;51.50;96454.25;4242977;27;5673;-70
2023/05/11 15:20:03;;;;;;;;;;;;;;;18.03;51.50;96455.84;4240117;27;5692;-70
2023/05/11 15:22:06;;;;;;;;;;;;;;;18.02;51.25;96453.44;4241771;27;5809;-70
2023/05/11 15:24:09;;;;;;;;;;;;;;;18.04;51.34;96448.63;4238624;27;5695;-70
2023/05/11 15:26:13;;;;;;;;;;;;;;;18.04;51.06;96451.31;4243524;27;5683;-69
2023/05/11 15:28:17;;;;;;;;;;;;;;;18.06;50.93;96449.19;4243870;27;5593;-69
2023/05/11 15:30:20;;;;;;;;;;;;;;;18.03;50.96;96447.84;4240454;27;5680;-70
2023/05/11 15:32:23;;;;;;;;;;;;;;;18.05;50.98;96444.91;4244872;27;6205;-71
2023/05/11 15:34:26;;;;;;;;;;;;;;;18.06;50.82;96448.38;4249630;27;5705;-70
2023/05/11 15:36:29;;;;;;;;;;;;;;;18.06;50.69;96437.69;4242202;27;5707;-70
2023/05/11 15:38:33;;;;;;;;;;;;;;;18.05;50.94;96442.22;4242589;27;5598;-72
2023/05/11 15:40:36;;;;;;;;;;;;;;;18.02;50.79;96443.53;4242084;27;5620;-70
2023/05/11 15:42:39;;;;;;;;;;;;;;;18.04;50.79;96441.41;4249957;27;5696;-71
2023/05/11 15:44:43;;;;;;;;;;;;;;;18.05;50.62;96439.56;4223709;28;5525;-71
2023/05/11 15:46:46;;;;;;;;;;;;;;;18.06;50.41;96437.69;4232284;28;5498;-71
2023/05/11 15:48:49;;;;;;;;;;;;;;;18.06;50.42;96435.81;4241265;27;5819;-71
2023/05/11 15:50:51;;;;;;;;;;;;;;;18.06;50.31;96437.69;4219670;28;5594;-71
2023/05/11 15:52:55;;;;;;;;;;;;;;;18.08;50.16;96443.59;4239474;27;5562;-71
2023/05/11 15:54:57;;;;;;;;;;;;;;;18.07;50.25;96433.94;4244023;27;5785;-71
2023/05/11 15:57:01;;;;;;;;;;;;;;;18.07;49.99;96442.78;4249122;27;7305;-71
2023/05/11 15:59:04;;;;;;;;;;;;;;;18.09;49.89;96439.84;4242556;27;5594;-71
2023/05/11 16:01:09;;;;;;;;;;;;;;;18.10;49.96;96444.94;4241692;27;5598;-71
2023/05/11 16:03:13;;;;;;;;;;;;;;;18.10;49.88;96439.59;4242228;27;5674;-70
2023/05/11 16:05:16;;;;;;;;;;;;;;;18.13;49.80;96446.34;4229561;28;5706;-70
2023/05/11 16:07:19;;;;;;;;;;;;;;;18.14;49.65;96445.28;4234913;27;5664;-69
2023/05/11 16:09:22;;;;;;;;;;;;;;;18.14;49.60;96446.09;4248668;27;5874;-70
2023/05/11 16:11:25;;;;;;;;;;;;;;;18.15;49.41;96449.56;4241658;27;5661;-71
2023/05/11 16:13:27;;;;;;;;;;;;;;;18.15;49.47;96441.53;4241497;27;5082;-70
2023/05/11 16:15:31;;;;;;;;;;;;;;;18.16;49.41;96443.16;4233394;27;5725;-71
2023/05/11 16:17:36;;;;;;;;;;;;;;;18.19;49.39;96443.47;4241529;27;5794;-70
2023/05/11 16:19:39;;;;;;;;;;;;;;;18.22;49.25;96448.31;4248328;27;5717;-70
2023/05/11 16:21:42;;;;;;;;;;;;;;;18.22;49.35;96445.63;4242917;27;5574;-71